Time;durP1;ratioP1;P1;durP2;ratioP2;P2;SDS_P1;SDS_P2;PMS_P1;PMS_P2;Temp;Humidity;BMP_temperature;BMP_pressure;BME280_temperature;BME280_humidity;BME280_pressure;Samples;Min_cycle;Max_cycle;Signal;HPM_P1;HPM_P2
2023/03/11 00:00:47;;;;;;;5.43;5.00;;;;;;;1.28;74.33;96688.69;5069744;28;20409;-73
2023/03/11 00:03:15;;;;;;;5.97;5.32;;;;;;;1.26;73.83;96702.16;5049743;28;20037;-72
2023/03/11 00:05:42;;;;;;;6.80;6.20;;;;;;;1.26;74.44;96710.13;5068740;28;20040;-73
2023/03/11 00:08:10;;;;;;;5.63;5.13;;;;;;;1.31;73.63;96712.09;5071092;28;20073;-72
2023/03/11 00:10:39;;;;;;;5.50;5.00;;;;;;;1.27;74.17;96740.09;5069939;28;20094;-71
2023/03/11 00:13:06;;;;;;;5.45;5.03;;;;;;;1.30;74.14;96727.22;5069650;28;20024;-72
2023/03/11 00:15:32;;;;;;;5.45;5.05;;;;;;;1.27;74.52;96743.56;5090104;28;20277;-72
2023/03/11 00:17:57;;;;;;;5.70;5.20;;;;;;;1.28;73.32;96747.81;5070077;28;20029;-74
2023/03/11 00:20:29;;;;;;;6.50;5.90;;;;;;;1.24;73.50;96744.00;5041322;28;20032;-72
2023/03/11 00:22:55;;;;;;;6.13;5.60;;;;;;;1.30;74.48;96756.38;5050188;28;20029;-71
2023/03/11 00:25:21;;;;;;;5.97;5.53;;;;;;;1.30;74.19;96758.22;5069708;28;20081;-71
2023/03/11 00:27:47;;;;;;;6.43;5.82;;;;;;;1.26;73.77;96776.41;5069644;28;20495;-71
2023/03/11 00:30:14;;;;;;;6.03;5.55;;;;;;;1.17;74.54;96769.78;5070968;28;20040;-71
2023/03/11 00:32:39;;;;;;;5.45;4.95;;;;;;;1.24;74.65;96775.81;5050568;28;20503;-71
2023/03/11 00:35:06;;;;;;;6.03;5.53;;;;;;;1.25;74.39;96784.59;5069541;28;20036;-72
2023/03/11 00:37:32;;;;;;;6.28;5.75;;;;;;;1.23;74.38;96779.50;5069527;28;20090;-71
2023/03/11 00:39:58;;;;;;;5.90;5.50;;;;;;;1.21;74.65;96775.47;5053064;28;20074;-71
2023/03/11 00:42:24;;;;;;;5.50;5.10;;;;;;;1.24;75.11;96772.34;5070718;28;20041;-73
2023/03/11 00:44:49;;;;;;;5.68;5.28;;;;;;;1.24;75.11;96782.94;5072313;28;20032;-72
2023/03/11 00:47:15;;;;;;;5.47;4.97;;;;;;;1.16;74.11;96799.97;5073106;28;20036;-73
2023/03/11 00:49:40;;;;;;;4.93;4.53;;;;;;;1.19;73.56;96799.53;5065909;28;20020;-72
2023/03/11 00:52:06;;;;;;;4.95;4.55;;;;;;;1.22;73.93;96809.69;5067068;28;20111;-72
2023/03/11 00:54:31;;;;;;;4.38;4.07;;;;;;;1.22;74.25;96820.31;5056140;28;20032;-71
2023/03/11 00:56:56;;;;;;;5.03;4.53;;;;;;;1.19;75.02;96830.56;5053216;28;20035;-71
2023/03/11 00:59:22;;;;;;;5.03;4.63;;;;;;;1.20;74.50;96827.66;5072912;28;20111;-72
2023/03/11 01:01:47;;;;;;;5.55;5.15;;;;;;;1.12;74.93;96830.59;5072645;28;20083;-72
2023/03/11 01:04:13;;;;;;;4.70;4.40;;;;;;;1.13;74.73;96823.44;5073907;28;20078;-71
2023/03/11 01:06:38;;;;;;;4.47;4.13;;;;;;;1.15;75.29;96826.69;5074064;28;20058;-72
2023/03/11 01:09:04;;;;;;;4.65;4.35;;;;;;;1.19;74.13;96825.25;5072760;28;20490;-72
2023/03/11 01:11:30;;;;;;;4.97;4.60;;;;;;;1.14;75.46;96849.75;5072643;28;20032;-73
2023/03/11 01:13:55;;;;;;;5.03;4.72;;;;;;;1.14;74.65;96836.50;5072379;28;20020;-72
2023/03/11 01:16:21;;;;;;;4.43;4.03;;;;;;;1.19;73.35;96851.75;5073789;28;20044;-72
2023/03/11 01:18:48;;;;;;;3.90;3.60;;;;;;;1.22;73.93;96846.00;5072608;28;20024;-72
2023/03/11 01:21:13;;;;;;;4.47;4.18;;;;;;;1.13;74.69;96861.38;5072422;28;20047;-72
2023/03/11 01:23:39;;;;;;;4.03;3.75;;;;;;;1.20;74.82;96859.47;5072301;28;20108;-73
2023/03/11 01:26:05;;;;;;;4.80;4.50;;;;;;;1.15;75.64;96861.97;5052514;28;20087;-73
2023/03/11 01:28:30;;;;;;;4.80;4.50;;;;;;;1.17;74.47;96859.91;5052394;28;20443;-73
2023/03/11 01:30:57;;;;;;;5.40;4.40;;;;;;;1.14;75.26;96854.25;5049921;28;20113;-73
2023/03/11 01:33:22;;;;;;;3.97;3.70;;;;;;;1.09;75.79;96849.59;5085324;28;20486;-72
2023/03/11 01:35:48;;;;;;;4.80;4.50;;;;;;;1.11;75.55;96858.16;5087272;28;20028;-72
2023/03/11 01:38:14;;;;;;;4.82;4.53;;;;;;;1.04;75.28;96854.75;5079208;28;20023;-71
2023/03/11 01:40:43;;;;;;;4.88;4.53;;;;;;;1.09;74.85;96867.34;5058754;28;20029;-71
2023/03/11 01:43:36;;;;;;;4.47;4.18;;;;;;;1.05;74.67;96872.25;5079626;28;20027;-71
2023/03/11 01:46:13;;;;;;;4.80;4.50;;;;;;;1.10;74.82;96883.00;5078789;28;20035;-72
2023/03/11 01:48:44;;;;;;;4.10;3.88;;;;;;;1.06;75.19;96881.84;5075599;28;20058;-72
2023/03/11 01:51:10;;;;;;;4.47;4.18;;;;;;;1.02;74.81;96866.59;5078182;28;20487;-72
2023/03/11 01:53:35;;;;;;;4.75;4.45;;;;;;;1.01;76.28;96892.28;5078996;28;20031;-71
2023/03/11 01:56:04;;;;;;;4.60;4.30;;;;;;;0.97;75.67;96891.09;5066252;28;20083;-71
2023/03/11 01:58:35;;;;;;;4.57;4.28;;;;;;;0.88;76.46;96897.69;5085344;28;20386;-71
2023/03/11 02:01:01;;;;;;;5.65;5.28;;;;;;;0.84;77.63;96888.53;5038992;28;20103;-72
2023/03/11 02:03:31;;;;;;;5.38;5.07;;;;;;;0.90;76.69;96885.03;5062938;28;20067;-72
2023/03/11 02:05:59;;;;;;;6.60;6.20;;;;;;;0.81;77.43;96888.97;5067243;28;20038;-72
2023/03/11 02:08:24;;;;;;;5.82;5.50;;;;;;;0.86;76.84;96899.75;5052759;28;20142;-71
2023/03/11 02:10:51;;;;;;;5.13;4.82;;;;;;;0.92;77.26;96893.56;5063791;28;20488;-71
2023/03/11 02:13:17;;;;;;;4.53;4.22;;;;;;;0.91;76.17;96901.75;5065873;28;20062;-72
2023/03/11 02:15:43;;;;;;;4.53;4.22;;;;;;;0.79;76.40;96917.53;5054792;28;20044;-72
2023/03/11 02:18:11;;;;;;;7.22;4.57;;;;;;;0.69;77.87;96899.44;5071188;28;20034;-72
2023/03/11 02:20:51;;;;;;;5.43;5.13;;;;;;;0.78;78.42;96913.25;5054848;28;20032;-72
2023/03/11 02:23:18;;;;;;;8.25;7.85;;;;;;;0.62;78.90;96905.81;5057800;28;20038;-73
2023/03/11 02:26:03;;;;;;;7.43;7.03;;;;;;;0.62;78.62;96906.63;5064548;28;20034;-72
2023/03/11 02:28:31;;;;;;;7.45;7.07;;;;;;;0.68;78.68;96899.63;5064812;28;20107;-72
2023/03/11 02:30:56;;;;;;;9.02;8.60;;;;;;;0.69;79.26;96909.22;5051880;28;20024;-73
2023/03/11 02:33:24;;;;;;;8.93;8.52;;;;;;;0.66;78.33;96914.94;5051280;28;20039;-73
2023/03/11 02:35:49;;;;;;;8.23;7.65;;;;;;;0.61;78.64;96917.41;5067682;28;20032;-72
2023/03/11 02:38:15;;;;;;;8.35;7.95;;;;;;;0.66;78.63;96931.66;5077539;28;20081;-73
2023/03/11 02:40:59;;;;;;;8.23;7.82;;;;;;;0.66;79.05;96928.19;5045429;28;20048;-73
2023/03/11 02:43:45;;;;;;;8.65;8.15;;;;;;;0.66;78.49;96931.66;5051813;28;20032;-72
2023/03/11 02:46:13;;;;;;;8.05;7.65;;;;;;;0.61;78.48;96933.31;5045028;28;20047;-71
2023/03/11 02:48:38;;;;;;;8.60;8.20;;;;;;;0.69;78.36;96935.72;5091232;28;20036;-71
2023/03/11 02:51:04;;;;;;;8.93;8.43;;;;;;;0.60;78.32;96947.59;5052038;28;20033;-72
2023/03/11 02:53:33;;;;;;;7.43;7.03;;;;;;;0.62;78.83;96942.88;5041643;28;20051;-72
2023/03/11 02:55:59;;;;;;;8.57;7.97;;;;;;;0.58;78.45;96949.66;5055009;28;20048;-70
2023/03/11 02:58:24;;;;;;;9.05;8.55;;;;;;;0.48;79.94;96954.56;5053986;28;20020;-71
2023/03/11 03:00:50;;;;;;;9.35;8.90;;;;;;;0.44;79.62;96948.09;5045951;28;20032;-72
2023/03/11 03:03:17;;;;;;;11.73;11.18;;;;;;;0.50;80.13;96957.81;5078407;28;20045;-71
2023/03/11 03:05:43;;;;;;;10.45;9.95;;;;;;;0.46;80.23;96962.75;5070708;28;20116;-72
2023/03/11 03:08:08;;;;;;;9.95;9.45;;;;;;;0.58;79.22;96962.88;5057786;28;20054;-72
2023/03/11 03:10:33;;;;;;;10.40;9.80;;;;;;;0.58;79.08;96973.47;5082708;28;20043;-72
2023/03/11 03:12:59;;;;;;;10.82;10.25;;;;;;;0.59;79.53;96977.75;5070422;28;20062;-73
2023/03/11 03:15:24;;;;;;;8.90;8.48;;;;;;;0.61;78.59;96975.69;5084174;28;20032;-73
2023/03/11 03:17:50;;;;;;;8.75;8.35;;;;;;;0.62;78.90;96983.44;5050539;28;20032;-74
2023/03/11 03:20:16;;;;;;;7.50;7.10;;;;;;;0.65;78.52;96974.25;5082455;28;20066;-73
2023/03/11 03:22:47;;;;;;;8.50;8.00;;;;;;;0.67;79.40;96985.44;5054276;28;20499;-73
2023/03/11 03:25:16;;;;;;;7.93;7.53;;;;;;;0.63;78.96;96984.25;5073506;28;20028;-72
2023/03/11 03:27:41;;;;;;;8.93;8.43;;;;;;;0.62;78.22;96987.91;5077793;28;20036;-73
2023/03/11 03:30:08;;;;;;;8.35;7.88;;;;;;;0.62;78.58;96998.50;5076444;28;20039;-74
2023/03/11 03:32:35;;;;;;;7.18;6.78;;;;;;;0.56;78.41;96988.78;5073832;28;20121;-72
2023/03/11 03:35:01;;;;;;;8.05;7.65;;;;;;;0.61;78.65;97007.47;5060339;28;20203;-73
2023/03/11 03:37:42;;;;;;;9.18;8.57;;;;;;;0.58;79.06;96997.31;5058931;28;20408;-73
2023/03/11 03:40:09;;;;;;;8.20;7.80;;;;;;;0.53;79.48;97000.59;5053683;28;20039;-72
2023/03/11 03:42:36;;;;;;;10.32;9.77;;;;;;;0.60;79.35;97013.81;5041713;28;20035;-73
2023/03/11 03:45:03;;;;;;;10.13;9.63;;;;;;;0.51;80.01;97012.44;5065075;28;20028;-72
2023/03/11 03:47:28;;;;;;;11.02;10.43;;;;;;;0.57;80.42;97006.28;5055541;28;20021;-72
2023/03/11 03:49:54;;;;;;;13.43;12.82;;;;;;;0.57;80.62;97011.56;5061508;28;20040;-72
2023/03/11 03:52:19;;;;;;;12.38;11.77;;;;;;;0.58;80.54;97003.41;5062668;28;20116;-73
2023/03/11 03:54:45;;;;;;;12.75;12.07;;;;;;;0.54;80.27;97011.97;5079197;28;20043;-73
2023/03/11 03:57:10;;;;;;;12.90;12.25;;;;;;;0.52;79.48;97021.97;5056657;28;20025;-71
2023/03/11 03:59:43;;;;;;;11.05;10.48;;;;;;;0.52;78.95;97019.34;5080147;28;20078;-71
2023/03/11 04:02:08;;;;;;;11.10;10.52;;;;;;;0.49;80.12;97030.38;5073427;28;20052;-71
2023/03/11 04:04:34;;;;;;;12.30;11.70;;;;;;;0.55;80.17;97034.81;5069665;28;20055;-71
2023/03/11 04:06:59;;;;;;;13.45;12.85;;;;;;;0.49;79.27;97046.25;5052866;28;20033;-72
2023/03/11 04:09:25;;;;;;;11.02;10.52;;;;;;;0.49;79.85;97046.25;5053332;28;20071;-70
2023/03/11 04:11:50;;;;;;;10.20;9.60;;;;;;;0.47;79.08;97054.38;5087682;28;20024;-71
2023/03/11 04:14:17;;;;;;;8.52;8.00;;;;;;;0.47;79.52;97050.91;5080156;28;20025;-72
2023/03/11 04:16:50;;;;;;;11.38;10.77;;;;;;;0.43;79.54;97053.19;5067232;28;20376;-72
2023/03/11 04:19:15;;;;;;;10.93;10.27;;;;;;;0.43;79.21;97057.66;5035558;28;20036;-72
2023/03/11 04:21:40;;;;;;;12.05;11.40;;;;;;;0.45;80.26;97066.22;5086062;28;20433;-73
2023/03/11 04:24:06;;;;;;;11.13;10.52;;;;;;;0.54;79.41;97070.25;5084116;28;20039;-73
2023/03/11 04:26:34;;;;;;;11.43;10.82;;;;;;;0.54;79.92;97070.25;5080605;28;20016;-73
2023/03/11 04:29:01;;;;;;;12.00;11.30;;;;;;;0.52;79.84;97082.88;5063081;28;20037;-73
2023/03/11 04:31:29;;;;;;;11.40;10.80;;;;;;;0.48;79.21;97074.56;5089555;28;20016;-73
2023/03/11 04:33:57;;;;;;;9.45;9.00;;;;;;;0.45;79.73;97071.50;5062053;28;20129;-73
2023/03/11 04:36:22;;;;;;;11.43;10.75;;;;;;;0.44;79.98;97069.91;5054904;28;20115;-73
2023/03/11 04:38:48;;;;;;;11.65;11.05;;;;;;;0.49;79.58;97075.38;5085132;28;20032;-73
2023/03/11 04:41:14;;;;;;;12.13;11.43;;;;;;;0.41;80.12;97080.91;5079837;28;20115;-73
2023/03/11 04:43:41;;;;;;;9.63;9.13;;;;;;;0.42;79.42;97079.88;5081691;28;20098;-72
2023/03/11 04:46:06;;;;;;;11.18;10.57;;;;;;;0.40;80.36;97084.53;5056432;28;20020;-72
2023/03/11 04:48:32;;;;;;;12.55;11.75;;;;;;;0.39;79.40;97082.94;5073011;28;20035;-71
2023/03/11 04:50:58;;;;;;;10.82;10.13;;;;;;;0.44;79.11;97091.06;5077656;28;20548;-72
2023/03/11 04:53:24;;;;;;;12.23;11.63;;;;;;;0.29;79.63;97078.06;5076355;28;20035;-71
2023/03/11 04:55:51;;;;;;;12.02;11.40;;;;;;;0.25;80.34;97078.69;5093278;28;20020;-71
2023/03/11 04:58:16;;;;;;;11.82;11.13;;;;;;;0.26;80.16;97077.66;5061563;28;20036;-71
2023/03/11 05:00:45;;;;;;;13.95;13.25;;;;;;;0.22;80.51;97081.75;5071408;28;20044;-73
2023/03/11 05:03:12;;;;;;;16.92;16.05;;;;;;;0.15;82.52;97086.25;5072798;28;20044;-71
2023/03/11 05:05:38;;;;;;;18.40;17.40;;;;;;;0.14;81.97;97079.34;5072894;28;20016;-72
2023/03/11 05:08:04;;;;;;;19.13;18.13;;;;;;;0.12;82.49;97087.47;5068345;28;20115;-72
2023/03/11 05:10:31;;;;;;;19.98;18.95;;;;;;;-0.07;83.82;97104.97;5079589;28;20023;-72
2023/03/11 05:12:58;;;;;;;24.42;23.23;;;;;;;-0.09;85.41;97098.28;5080211;28;20055;-73
2023/03/11 05:15:30;;;;;;;23.95;22.75;;;;;;;-0.11;85.08;97102.97;5086476;28;20016;-72
2023/03/11 05:17:57;;;;;;;26.42;25.10;;;;;;;-0.18;86.02;97116.19;5072843;28;20032;-72
2023/03/11 05:20:23;;;;;;;28.95;27.45;;;;;;;-0.26;86.82;97127.00;5054260;28;20075;-72
2023/03/11 05:22:48;;;;;;;31.27;29.75;;;;;;;-0.29;87.62;97118.63;5063484;28;20033;-72
2023/03/11 05:25:14;;;;;;;29.52;27.85;;;;;;;-0.34;88.32;97124.53;5075211;28;20028;-73
2023/03/11 05:27:40;;;;;;;30.55;28.95;;;;;;;-0.36;89.30;97139.78;5092621;28;20036;-73
2023/03/11 05:30:08;;;;;;;32.53;30.75;;;;;;;-0.40;89.67;97157.09;5065455;28;20021;-72
2023/03/11 05:32:35;;;;;;;31.55;29.95;;;;;;;-0.32;88.59;97148.13;5052378;28;20110;-72
2023/03/11 05:35:00;;;;;;;32.17;30.38;;;;;;;-0.31;88.98;97161.16;5072087;28;20037;-73
2023/03/11 05:37:26;;;;;;;33.15;31.30;;;;;;;-0.31;89.09;97155.88;5055494;28;20070;-72
2023/03/11 05:39:54;;;;;;;33.35;31.48;;;;;;;-0.31;88.97;97160.34;5052292;28;20029;-72
2023/03/11 05:42:20;;;;;;;34.58;32.42;;;;;;;-0.36;89.55;97160.94;5065858;28;20033;-73
2023/03/11 05:44:47;;;;;;;34.83;32.80;;;;;;;-0.38;89.40;97165.63;5052095;28;20074;-72
2023/03/11 05:47:13;;;;;;;33.13;31.35;;;;;;;-0.44;89.49;97161.13;5066861;28;20040;-73
2023/03/11 05:49:39;;;;;;;32.92;31.17;;;;;;;-0.34;88.73;97169.50;5060961;28;20086;-72
2023/03/11 05:52:04;;;;;;;34.38;32.58;;;;;;;-0.30;87.55;97168.06;5048911;28;20396;-72
2023/03/11 05:54:31;;;;;;;34.60;32.80;;;;;;;-0.27;87.33;97166.84;5055019;28;20033;-73
2023/03/11 05:56:56;;;;;;;30.98;29.48;;;;;;;-0.21;86.96;97169.50;5062827;28;20029;-73
2023/03/11 05:59:23;;;;;;;30.33;28.63;;;;;;;-0.12;85.27;97173.56;5091966;28;20026;-73
2023/03/11 06:01:54;;;;;;;32.65;31.15;;;;;;;-0.08;85.07;97168.69;5059842;28;20112;-72
2023/03/11 06:04:21;;;;;;;31.38;29.88;;;;;;;-0.12;84.43;97181.50;5055932;28;20083;-73
2023/03/11 06:06:46;;;;;;;28.85;27.35;;;;;;;-0.08;84.21;97182.75;5030598;28;20032;-73
2023/03/11 06:09:13;;;;;;;27.85;26.45;;;;;;;0.07;84.11;97179.88;5071306;28;20036;-74
2023/03/11 06:11:40;;;;;;;28.30;27.00;;;;;;;0.10;82.66;97183.97;5053929;28;20082;-73
2023/03/11 06:14:05;;;;;;;26.10;24.90;;;;;;;0.10;82.77;97184.78;5063867;28;20033;-73
2023/03/11 06:16:31;;;;;;;26.65;25.25;;;;;;;0.09;83.32;97190.28;5073837;28;20032;-73
2023/03/11 06:18:59;;;;;;;25.95;24.58;;;;;;;0.15;82.36;97197.41;5059467;28;20032;-73
2023/03/11 06:21:28;;;;;;;27.80;26.40;;;;;;;0.33;82.80;97195.78;5078550;28;20079;-73
2023/03/11 06:23:54;;;;;;;23.02;21.92;;;;;;;0.50;82.10;97196.16;5077704;28;20032;-73
2023/03/11 06:26:21;;;;;;;21.02;20.02;;;;;;;0.32;82.12;97188.03;5053311;28;20070;-73
2023/03/11 06:28:47;;;;;;;22.48;21.30;;;;;;;0.51;81.76;97193.31;5051013;28;20037;-74
2023/03/11 06:31:15;;;;;;;25.40;24.20;;;;;;;0.35;82.15;97198.25;5048661;28;20409;-73
2023/03/11 06:33:40;;;;;;;22.95;21.85;;;;;;;0.43;82.53;97204.13;5049955;28;20068;-73
2023/03/11 06:36:07;;;;;;;23.92;22.48;;;;;;;0.24;83.13;97209.41;5066983;28;20044;-73
2023/03/11 06:38:32;;;;;;;23.23;22.02;;;;;;;0.32;82.95;97219.81;5047860;28;20507;-73
2023/03/11 06:41:02;;;;;;;21.50;20.27;;;;;;;0.40;83.29;97219.59;5051229;28;20017;-73
2023/03/11 06:43:30;;;;;;;23.98;22.77;;;;;;;0.32;83.34;97225.13;5037803;28;20029;-73
2023/03/11 06:45:56;;;;;;;25.83;24.52;;;;;;;0.43;83.47;97221.84;5053125;28;20025;-73
2023/03/11 06:48:22;;;;;;;25.95;24.67;;;;;;;0.29;82.78;97225.50;5037534;28;20388;-74
2023/03/11 06:50:56;;;;;;;21.70;20.50;;;;;;;0.21;83.40;97233.66;5054278;28;20036;-74
2023/03/11 06:53:21;;;;;;;25.50;24.10;;;;;;;0.48;82.59;97240.59;5050659;28;20031;-72
2023/03/11 06:56:16;;;;;;;20.75;19.70;;;;;;;0.24;83.07;97249.94;5055725;28;20107;-74
2023/03/11 06:58:47;;;;;;;24.63;23.33;;;;;;;0.18;83.00;97255.25;5038136;28;20453;-74
2023/03/11 07:01:17;;;;;;;25.10;23.65;;;;;;;0.19;82.59;97248.94;5067707;28;20037;-73
2023/03/11 07:03:44;;;;;;;23.80;22.60;;;;;;;0.13;82.99;97263.78;5067060;28;20024;-74
2023/03/11 07:06:21;;;;;;;22.65;21.48;;;;;;;0.16;82.56;97262.56;5063757;28;20035;-73
2023/03/11 07:08:47;;;;;;;21.73;20.58;;;;;;;0.19;82.68;97264.81;5060735;28;20074;-74
2023/03/11 07:11:16;;;;;;;23.30;22.15;;;;;;;0.26;82.90;97273.56;5064977;28;20085;-73
2023/03/11 07:13:42;;;;;;;21.92;20.73;;;;;;;0.29;82.34;97273.16;5060281;28;20036;-73
2023/03/11 07:16:11;;;;;;;23.90;22.73;;;;;;;0.22;83.15;97280.28;5062667;28;20710;-73
2023/03/11 07:18:37;;;;;;;23.77;22.45;;;;;;;0.40;83.54;97291.09;5058883;28;20042;-73
2023/03/11 07:21:05;;;;;;;23.63;22.40;;;;;;;0.27;82.24;97285.78;5061318;28;20470;-73
2023/03/11 07:23:31;;;;;;;24.13;22.83;;;;;;;0.44;82.58;97295.00;5083593;28;20388;-74
2023/03/11 07:25:56;;;;;;;22.17;20.98;;;;;;;0.22;82.69;97301.47;5061926;28;20029;-74
2023/03/11 07:28:23;;;;;;;21.27;20.08;;;;;;;0.07;82.64;97290.25;5082512;28;20081;-73
2023/03/11 07:30:49;;;;;;;23.05;21.67;;;;;;;0.21;82.58;97307.78;5082800;28;20615;-72
2023/03/11 07:33:14;;;;;;;25.33;24.10;;;;;;;0.19;82.82;97309.81;5073348;28;20060;-73
2023/03/11 07:35:40;;;;;;;24.10;22.70;;;;;;;0.45;82.81;97309.84;5070316;28;20020;-75
2023/03/11 07:38:05;;;;;;;23.50;22.33;;;;;;;0.58;81.64;97309.88;5076622;28;20392;-73
2023/03/11 07:40:31;;;;;;;22.25;20.98;;;;;;;0.66;81.46;97317.59;5078734;28;20099;-73
2023/03/11 07:42:57;;;;;;;22.40;21.20;;;;;;;0.74;81.72;97304.16;5053364;28;20676;-74
2023/03/11 07:45:22;;;;;;;19.33;18.20;;;;;;;0.81;80.02;97320.88;5050556;28;20025;-73
2023/03/11 07:47:48;;;;;;;21.38;20.23;;;;;;;0.89;81.04;97318.00;5082665;28;20512;-73
2023/03/11 07:50:13;;;;;;;18.52;17.25;;;;;;;0.78;79.36;97317.81;5070146;28;20407;-74
2023/03/11 07:52:38;;;;;;;16.23;15.10;;;;;;;0.68;78.94;97332.28;5069906;28;20028;-73
2023/03/11 07:55:04;;;;;;;17.65;16.65;;;;;;;0.65;80.69;97326.56;5058932;28;20039;-73
2023/03/11 07:57:29;;;;;;;19.33;18.02;;;;;;;0.85;79.99;97332.69;5079491;28;20107;-73
2023/03/11 07:59:55;;;;;;;15.73;14.75;;;;;;;1.01;79.56;97332.25;5062266;28;20033;-73
2023/03/11 08:02:20;;;;;;;13.23;12.50;;;;;;;0.89;78.75;97344.50;5085946;28;20128;-73
2023/03/11 08:04:46;;;;;;;11.93;11.18;;;;;;;0.87;79.01;97338.59;5085559;28;20115;-73
2023/03/11 08:07:11;;;;;;;13.15;12.32;;;;;;;0.87;79.42;97340.41;5076833;28;20028;-73
2023/03/11 08:09:36;;;;;;;14.52;13.70;;;;;;;1.00;78.73;97346.56;5073719;28;20464;-73
2023/03/11 08:12:02;;;;;;;13.45;12.52;;;;;;;1.13;78.33;97356.31;5054424;28;20158;-73
2023/03/11 08:14:27;;;;;;;11.95;11.23;;;;;;;1.11;79.08;97359.19;5075948;28;20099;-73
2023/03/11 08:16:53;;;;;;;9.30;8.73;;;;;;;1.04;77.72;97361.03;5079978;28;20028;-73
2023/03/11 08:19:18;;;;;;;10.02;9.32;;;;;;;1.04;77.38;97371.63;5061656;28;20036;-73
2023/03/11 08:21:44;;;;;;;7.78;7.18;;;;;;;1.08;77.11;97375.50;5085673;28;20032;-73
2023/03/11 08:24:12;;;;;;;9.73;8.95;;;;;;;1.26;77.55;97373.00;5074761;28;20704;-74
2023/03/11 08:26:37;;;;;;;9.95;9.15;;;;;;;1.72;76.45;97382.72;5087178;28;20036;-73
2023/03/11 08:29:03;;;;;;;8.57;7.88;;;;;;;1.52;74.02;97376.66;5084756;28;20468;-74
2023/03/11 08:31:31;;;;;;;8.52;7.82;;;;;;;1.61;75.75;97381.53;5063320;28;20028;-73
2023/03/11 08:33:59;;;;;;;5.88;5.38;;;;;;;1.84;75.31;97391.69;5062104;28;20116;-73
2023/03/11 08:36:25;;;;;;;4.68;4.38;;;;;;;1.87;73.19;97384.09;5085217;28;20036;-74
2023/03/11 08:38:51;;;;;;;5.47;4.97;;;;;;;1.87;73.70;97383.28;5073534;28;20046;-73
2023/03/11 08:41:17;;;;;;;3.50;3.03;;;;;;;1.82;70.91;97388.44;5077965;28;20040;-74
2023/03/11 08:43:43;;;;;;;3.63;3.05;;;;;;;1.79;73.10;97391.50;5059220;28;20025;-74
2023/03/11 08:46:13;;;;;;;4.78;4.22;;;;;;;2.06;73.04;97393.03;5085235;28;20399;-74
2023/03/11 08:48:39;;;;;;;2.95;2.75;;;;;;;1.77;70.47;97396.19;5056697;28;20158;-73
2023/03/11 08:51:09;;;;;;;4.53;2.50;;;;;;;1.84;71.02;97391.69;5073414;28;20447;-73
2023/03/11 08:53:36;;;;;;;2.70;2.50;;;;;;;1.98;71.38;97404.69;5085391;28;20039;-75
2023/03/11 08:56:01;;;;;;;2.90;2.25;;;;;;;1.78;70.65;97422.53;5083499;28;20031;-73
2023/03/11 08:58:27;;;;;;;4.22;2.08;;;;;;;1.56;70.33;97409.72;5056241;28;20040;-73
2023/03/11 09:00:53;;;;;;;2.75;2.53;;;;;;;1.60;72.48;97421.53;5062567;28;20039;-73
2023/03/11 09:03:18;;;;;;;2.30;2.10;;;;;;;1.58;70.71;97418.28;5080847;28;20029;-73
2023/03/11 09:05:44;;;;;;;2.40;2.20;;;;;;;1.50;70.83;97426.44;5051606;28;20020;-73
2023/03/11 09:08:09;;;;;;;2.70;2.50;;;;;;;1.53;72.54;97439.31;5068943;28;20104;-73
2023/03/11 09:10:35;;;;;;;2.53;2.33;;;;;;;1.42;70.62;97433.59;5054020;28;20032;-74
2023/03/11 09:13:00;;;;;;;2.70;2.10;;;;;;;1.58;71.76;97440.31;5073067;28;20063;-73
2023/03/11 09:15:26;;;;;;;2.20;1.80;;;;;;;1.36;68.74;97450.34;5079770;28;20198;-73
2023/03/11 09:17:51;;;;;;;2.28;1.88;;;;;;;1.54;68.97;97446.25;5072502;28;20041;-73
2023/03/11 09:20:17;;;;;;;3.03;2.78;;;;;;;1.47;72.02;97448.09;5072340;28;20097;-74
2023/03/11 09:22:42;;;;;;;3.88;3.10;;;;;;;1.45;72.60;97450.16;5071990;28;20041;-75
2023/03/11 09:25:09;;;;;;;3.90;3.60;;;;;;;1.24;74.19;97454.63;5073311;28;20031;-75
2023/03/11 09:27:34;;;;;;;3.13;2.83;;;;;;;1.35;72.45;97461.94;5055612;28;20043;-75
2023/03/11 09:29:59;;;;;;;4.47;4.07;;;;;;;1.64;71.72;97459.91;5072205;28;20024;-73
2023/03/11 09:32:25;;;;;;;3.00;2.30;;;;;;;1.44;70.31;97465.25;5069674;28;20024;-75
2023/03/11 09:34:50;;;;;;;4.68;2.80;;;;;;;1.32;69.56;97461.56;5052678;28;20028;-74
2023/03/11 09:37:15;;;;;;;1.95;1.75;;;;;;;1.28;70.04;97466.44;5058637;28;20179;-74
2023/03/11 09:39:41;;;;;;;1.98;1.77;;;;;;;1.29;69.90;97472.56;5063865;28;20028;-75
2023/03/11 09:42:19;;;;;;;2.90;1.63;;;;;;;0.96;70.95;97485.78;5071927;28;20390;-74
2023/03/11 09:45:00;;;;;;;3.03;2.63;;;;;;;1.16;72.28;97483.19;5058171;28;20047;-74
2023/03/11 09:47:42;;;;;;;3.55;2.88;;;;;;;1.19;72.74;97488.09;5075618;28;20404;-74
2023/03/11 09:50:15;;;;;;;3.28;3.00;;;;;;;1.49;71.69;97485.84;5080905;28;20174;-74
2023/03/11 09:52:56;;;;;;;3.00;2.70;;;;;;;1.60;73.01;97490.53;5080496;28;20032;-74
2023/03/11 09:55:47;;;;;;;3.08;2.78;;;;;;;1.45;72.96;97493.38;5073936;28;20075;-73
2023/03/11 09:58:34;;;;;;;2.30;2.10;;;;;;;1.51;72.38;97503.19;5076226;28;20039;-74
2023/03/11 10:01:00;;;;;;;2.35;1.90;;;;;;;1.74;71.40;97500.09;5061048;28;20044;-73
2023/03/11 10:03:34;;;;;;;2.78;2.50;;;;;;;1.66;70.03;97498.47;5071329;28;20040;-75
2023/03/11 10:06:20;;;;;;;3.03;2.08;;;;;;;1.66;70.21;97498.47;5050413;28;20036;-74
2023/03/11 10:08:51;;;;;;;2.50;2.10;;;;;;;1.63;70.20;97501.56;5069384;28;20028;-74
2023/03/11 10:11:45;;;;;;;4.28;3.88;;;;;;;1.66;68.37;97500.31;5072097;28;20522;-73
2023/03/11 10:14:43;;;;;;;3.08;2.40;;;;;;;1.79;68.52;97500.31;5069276;28;20505;-74
2023/03/11 10:17:35;;;;;;;3.00;2.20;;;;;;;1.72;67.64;97500.31;5071705;28;20067;-74
2023/03/11 10:20:20;;;;;;;1.85;1.58;;;;;;;1.86;66.99;97501.13;5056135;28;20032;-75
2023/03/11 10:22:55;;;;;;;2.47;1.65;;;;;;;2.30;66.40;97495.91;5071840;28;20369;-74
2023/03/11 10:25:24;;;;;;;4.22;1.80;;;;;;;1.98;64.96;97494.16;5072526;28;20506;-74
2023/03/11 10:28:04;;;;;;;1.90;1.50;;;;;;;2.29;65.74;97496.91;5070921;28;20027;-74
2023/03/11 10:30:36;;;;;;;1.60;1.40;;;;;;;2.29;63.01;97496.91;5055287;28;20541;-74
2023/03/11 10:33:25;;;;;;;12.43;10.23;;;;;;;2.39;65.94;97496.47;5053800;28;20021;-74
2023/03/11 10:35:52;;;;;;;14.15;11.80;;;;;;;2.20;64.41;97498.19;5070316;28;20449;-74
2023/03/11 10:38:31;;;;;;;6.20;5.60;;;;;;;2.30;64.31;97503.88;5054031;28;20033;-74
2023/03/11 10:40:59;;;;;;;4.00;3.60;;;;;;;2.39;64.11;97492.00;5052112;28;20036;-74
2023/03/11 10:43:40;;;;;;;3.35;3.05;;;;;;;2.41;63.80;97495.25;5070361;28;20050;-74
2023/03/11 10:46:18;;;;;;;2.13;1.90;;;;;;;2.43;62.26;97498.50;5065853;28;20028;-75
2023/03/11 10:48:43;;;;;;;3.38;1.70;;;;;;;2.47;62.37;97502.41;5069160;28;20111;-74
2023/03/11 10:51:14;;;;;;;2.08;1.60;;;;;;;2.19;63.87;97501.06;5049398;28;20067;-74
2023/03/11 10:53:51;;;;;;;2.25;1.60;;;;;;;2.06;65.33;97496.56;5073266;28;20024;-74
2023/03/11 10:56:44;;;;;;;2.85;1.98;;;;;;;2.10;64.75;97505.78;5065434;28;20044;-74
2023/03/11 10:59:24;;;;;;;2.83;1.80;;;;;;;1.86;63.52;97511.75;5070489;28;20054;-75
2023/03/11 11:02:16;;;;;;;2.35;1.98;;;;;;;2.00;64.59;97508.88;5091700;28;20067;-74
2023/03/11 11:04:41;;;;;;;4.18;3.10;;;;;;;1.80;65.04;97518.69;5070217;28;20051;-74
2023/03/11 11:07:27;;;;;;;5.60;4.82;;;;;;;1.94;66.46;97524.78;5053987;28;20024;-74
2023/03/11 11:10:10;;;;;;;2.80;2.17;;;;;;;1.83;64.17;97528.88;5072788;28;20037;-74
2023/03/11 11:13:01;;;;;;;3.35;2.20;;;;;;;1.95;63.89;97526.44;5054192;28;20507;-73
2023/03/11 11:15:34;;;;;;;5.68;3.85;;;;;;;2.09;64.87;97533.34;5049813;28;20103;-74
2023/03/11 11:18:04;;;;;;;3.20;2.25;;;;;;;2.07;64.47;97530.91;5062363;28;20077;-73
2023/03/11 11:20:31;;;;;;;2.67;1.73;;;;;;;2.22;64.83;97528.00;5048478;28;20032;-73
2023/03/11 11:23:01;;;;;;;4.20;1.88;;;;;;;2.48;63.42;97527.94;5057367;28;20040;-74
2023/03/11 11:25:34;;;;;;;2.85;1.80;;;;;;;2.31;62.67;97526.75;5083054;28;20128;-75
2023/03/11 11:28:04;;;;;;;3.17;2.33;;;;;;;2.68;61.89;97533.19;5084213;28;20032;-74
2023/03/11 11:30:29;;;;;;;2.08;1.60;;;;;;;2.34;57.96;97526.34;5063253;28;20089;-74
2023/03/11 11:32:55;;;;;;;2.67;1.60;;;;;;;2.30;58.18;97514.50;5072089;28;20017;-74
2023/03/11 11:35:23;;;;;;;2.03;1.42;;;;;;;2.71;58.16;97514.97;5079701;28;20067;-74
2023/03/11 11:37:51;;;;;;;1.58;1.40;;;;;;;2.50;57.98;97525.88;5076918;28;20028;-74
2023/03/11 11:40:32;;;;;;;2.85;1.58;;;;;;;2.26;56.66;97520.44;5080636;28;20548;-73